createdAt,value
2023-05-19T00:01:28.533Z,101405.64
2023-05-19T00:04:15.066Z,101406.65
2023-05-19T00:07:02.432Z,101402.98
2023-05-19T00:09:48.273Z,101405.48
2023-05-19T00:12:35.304Z,101402.85
2023-05-19T00:15:20.838Z,101405.38
2023-05-19T00:18:08.400Z,101405.19
2023-05-19T00:20:54.121Z,101403.27
2023-05-19T00:23:39.668Z,101406.47
2023-05-19T00:26:27.249Z,101408.39
2023-05-19T00:29:20.802Z,101409.98
2023-05-19T00:32:06.812Z,101408.02
2023-05-19T00:34:52.773Z,101409.98
2023-05-19T00:37:38.455Z,101412.27
2023-05-19T00:40:24.448Z,101412.80
2023-05-19T00:43:10.011Z,101417.48
2023-05-19T00:45:56.509Z,101420.88
2023-05-19T00:48:44.170Z,101423.20
2023-05-19T00:51:30.797Z,101421.62
2023-05-19T00:54:16.367Z,101420.95
2023-05-19T00:57:05.571Z,101423.51
2023-05-19T00:59:51.696Z,101423.38
2023-05-19T01:02:39.328Z,101427.88
2023-05-19T01:05:25.825Z,101428.61
2023-05-19T01:08:11.397Z,101426.49
2023-05-19T01:10:57.376Z,101425.27
2023-05-19T01:13:43.527Z,101421.33
2023-05-19T01:16:30.366Z,101425.96
2023-05-19T01:19:36.366Z,101427.56
2023-05-19T01:22:42.320Z,101423.64
2023-05-19T01:25:48.304Z,101423.30
2023-05-19T01:28:40.216Z,101423.50
2023-05-19T01:31:27.149Z,101423.14
2023-05-19T01:34:15.871Z,101420.11
2023-05-19T01:37:03.115Z,101421.01
2023-05-19T01:39:50.151Z,101420.87
2023-05-19T01:42:39.298Z,101422.30
2023-05-19T01:45:27.933Z,101425.57
2023-05-19T01:48:14.835Z,101426.90
2023-05-19T01:51:00.499Z,101428.54
2023-05-19T01:53:45.984Z,101433.57
2023-05-19T01:56:54.978Z,101437.66
2023-05-19T02:00:19.309Z,101434.65
2023-05-19T02:03:12.231Z,101431.82
2023-05-19T02:06:19.851Z,101441.08
2023-05-19T02:09:11.411Z,101439.98
2023-05-19T02:12:15.420Z,101441.71
2023-05-19T02:15:11.359Z,101445.84
2023-05-19T02:17:59.588Z,101449.91
2023-05-19T02:20:45.241Z,101452.42
2023-05-19T02:23:30.831Z,101454.40
2023-05-19T02:26:16.645Z,101456.55
2023-05-19T02:29:02.137Z,101459.95
2023-05-19T02:31:48.015Z,101462.09
2023-05-19T02:34:33.609Z,101462.95
2023-05-19T02:37:18.827Z,101468.14
2023-05-19T02:40:05.483Z,101469.92
2023-05-19T02:42:51.110Z,101468.66
2023-05-19T02:45:36.702Z,101472.58
2023-05-19T02:48:23.260Z,101476.67
2023-05-19T02:51:08.675Z,101480.22
2023-05-19T02:53:54.412Z,101485.38
2023-05-19T02:56:40.109Z,101488.23
2023-05-19T02:59:25.872Z,101489.61
2023-05-19T03:02:12.048Z,101490.15
2023-05-19T03:04:57.598Z,101486.95
2023-05-19T03:07:43.141Z,101490.84
2023-05-19T03:10:28.784Z,101486.45
2023-05-19T03:13:14.190Z,101489.59
2023-05-19T03:16:01.483Z,101488.45
2023-05-19T03:18:47.266Z,101492.48
2023-05-19T03:21:34.029Z,101494.52
2023-05-19T03:24:19.552Z,101502.30
2023-05-19T03:27:05.340Z,101500.98
2023-05-19T03:29:52.294Z,101504.95
2023-05-19T03:32:38.334Z,101507.66
2023-05-19T03:35:24.456Z,101507.84
2023-05-19T03:38:10.138Z,101505.97
2023-05-19T03:40:55.736Z,101505.27
2023-05-19T03:43:41.460Z,101509.20
2023-05-19T03:46:28.183Z,101508.93
2023-05-19T03:49:25.777Z,101509.58
2023-05-19T03:52:23.023Z,101505.39
2023-05-19T03:55:15.824Z,101505.69
2023-05-19T03:58:02.001Z,101507.08
2023-05-19T04:00:48.406Z,101513.20
2023-05-19T04:03:33.737Z,101510.23
2023-05-19T04:06:21.761Z,101510.80
2023-05-19T04:09:13.004Z,101516.17
2023-05-19T04:11:58.511Z,101511.18
2023-05-19T04:14:43.752Z,101514.19
2023-05-19T04:17:30.028Z,101515.75
2023-05-19T04:20:16.107Z,101511.05
2023-05-19T04:23:01.625Z,101509.05
2023-05-19T04:25:48.159Z,101509.42
2023-05-19T04:28:36.141Z,101512.41
2023-05-19T04:31:21.757Z,101513.95
2023-05-19T04:34:09.497Z,101511.54
2023-05-19T04:36:56.214Z,101512.45
2023-05-19T04:40:01.652Z,101514.04
2023-05-19T04:42:49.297Z,101515.90
2023-05-19T04:45:37.076Z,101515.46
2023-05-19T04:48:23.684Z,101516.64
2023-05-19T04:51:09.751Z,101518.16
2023-05-19T04:53:55.454Z,101521.48
2023-05-19T04:56:41.538Z,101526.63
2023-05-19T04:59:27.150Z,101529.93
2023-05-19T05:02:17.713Z,101535.45
2023-05-19T05:05:03.879Z,101539.52
2023-05-19T05:07:50.168Z,101540.56
2023-05-19T05:10:36.184Z,101542.53
2023-05-19T05:13:23.546Z,101541.98
2023-05-19T05:16:09.930Z,101545.05
2023-05-19T05:18:56.918Z,101544.34
2023-05-19T05:21:42.731Z,101548.29
2023-05-19T05:24:28.568Z,101552.73
2023-05-19T05:27:17.360Z,101555.02
2023-05-19T05:30:04.896Z,101555.34
2023-05-19T05:32:50.891Z,101557.29
2023-05-19T05:35:54.954Z,101560.89
2023-05-19T05:38:40.592Z,101562.27
2023-05-19T05:41:26.837Z,101565.55
2023-05-19T05:44:12.805Z,101560.23
2023-05-19T05:47:00.417Z,101565.42
2023-05-19T05:49:48.133Z,101566.45
2023-05-19T05:52:36.670Z,101568.91
2023-05-19T05:55:22.870Z,101569.56
2023-05-19T05:58:10.697Z,101572.02
2023-05-19T06:01:00.304Z,101573.88
2023-05-19T06:03:46.258Z,101572.45
2023-05-19T06:06:37.453Z,101579.14
2023-05-19T06:09:23.417Z,101581.71
2023-05-19T06:12:10.894Z,101586.40
2023-05-19T06:15:07.437Z,101587.20
2023-05-19T06:17:56.204Z,101590.73
2023-05-19T06:20:41.802Z,101591.25
2023-05-19T06:23:28.583Z,101592.34
2023-05-19T06:26:14.887Z,101591.39
2023-05-19T06:29:00.627Z,101595.09
2023-05-19T06:35:05.020Z,101603.30
2023-05-19T06:38:06.207Z,101602.67
2023-05-19T06:40:51.828Z,101598.55
2023-05-19T06:43:37.590Z,101598.99
2023-05-19T06:46:23.249Z,101598.52
2023-05-19T06:49:10.648Z,101603.83
2023-05-19T06:51:58.616Z,101600.14
2023-05-19T06:54:44.727Z,101605.33
2023-05-19T06:57:30.574Z,101606.64
2023-05-19T07:00:19.824Z,101607.14
2023-05-19T07:03:10.319Z,101608.02
2023-05-19T07:05:57.085Z,101606.39
2023-05-19T07:08:44.256Z,101614.01
2023-05-19T07:11:30.184Z,101612.89
2023-05-19T07:14:17.672Z,101612.94
2023-05-19T07:17:03.970Z,101614.95
2023-05-19T07:19:50.560Z,101613.47
2023-05-19T07:22:36.551Z,101615.14
2023-05-19T07:25:23.190Z,101612.73
2023-05-19T07:28:08.884Z,101620.66
2023-05-19T07:30:54.940Z,101620.55
2023-05-19T07:33:40.983Z,101622.84
2023-05-19T07:36:27.964Z,101623.77
2023-05-19T07:39:13.945Z,101628.97
2023-05-19T07:41:59.663Z,101627.42
2023-05-19T07:44:45.359Z,101622.48
2023-05-19T07:47:45.408Z,101622.93
2023-05-19T07:50:31.985Z,101624.78
2023-05-19T07:53:19.730Z,101627.52
2023-05-19T07:56:05.983Z,101629.26
2023-05-19T07:58:51.802Z,101630.33
2023-05-19T08:01:38.970Z,101632.45
2023-05-19T08:04:29.205Z,101630.10
2023-05-19T08:07:15.016Z,101626.83
2023-05-19T08:10:00.396Z,101624.30
2023-05-19T08:12:46.988Z,101625.77
2023-05-19T08:15:36.314Z,101621.96
2023-05-19T08:18:28.027Z,101620.77
2023-05-19T08:21:13.523Z,101618.92
2023-05-19T08:24:17.522Z,101619.77
2023-05-19T08:27:27.350Z,101617.62
2023-05-19T08:30:12.968Z,101619.95
2023-05-19T08:32:58.607Z,101619.54
2023-05-19T08:35:44.503Z,101623.30
2023-05-19T08:38:33.185Z,101629.34
2023-05-19T08:41:22.909Z,101623.94
2023-05-19T08:44:08.688Z,101628.60
2023-05-19T08:46:55.613Z,101622.63
2023-05-19T08:49:49.273Z,101621.59
2023-05-19T08:52:46.858Z,101619.05
2023-05-19T08:55:54.994Z,101616.00
2023-05-19T08:58:54.248Z,101618.78
2023-05-19T09:01:44.990Z,101621.66
2023-05-19T09:04:31.652Z,101627.08
2023-05-19T09:07:19.004Z,101624.77
2023-05-19T09:10:08.351Z,101620.73
2023-05-19T09:12:55.063Z,101623.17
2023-05-19T09:15:42.390Z,101622.17
2023-05-19T09:18:28.814Z,101623.61
2023-05-19T09:21:15.105Z,101620.16
2023-05-19T09:24:06.553Z,101626.08
2023-05-19T09:26:57.724Z,101626.80
2023-05-19T09:29:44.888Z,101625.45
2023-05-19T09:32:31.034Z,101622.41
2023-05-19T09:35:20.946Z,101614.73
2023-05-19T09:38:10.966Z,101618.23
2023-05-19T09:41:03.356Z,101616.36
2023-05-19T09:43:55.752Z,101621.54
2023-05-19T09:46:52.213Z,101615.86
2023-05-19T09:49:48.242Z,101618.51
2023-05-19T09:52:44.157Z,101615.95
2023-05-19T09:55:32.761Z,101616.58
2023-05-19T09:58:18.547Z,101617.09
2023-05-19T10:01:04.733Z,101611.46
2023-05-19T10:03:52.756Z,101613.63
2023-05-19T10:06:42.080Z,101611.85
2023-05-19T10:09:29.499Z,101616.78
2023-05-19T10:12:17.517Z,101612.35
2023-05-19T10:15:11.116Z,101610.35
2023-05-19T10:17:57.112Z,101606.61
2023-05-19T10:20:43.810Z,101616.83
2023-05-19T10:23:29.966Z,101616.45
2023-05-19T10:26:16.026Z,101608.89
2023-05-19T10:29:04.554Z,101605.80
2023-05-19T10:31:52.314Z,101608.70
2023-05-19T10:34:49.768Z,101610.55
2023-05-19T10:37:50.595Z,101607.92
2023-05-19T10:40:52.930Z,101606.89
2023-05-19T10:43:50.910Z,101610.38
2023-05-19T10:46:37.343Z,101612.08
2023-05-19T10:49:24.124Z,101616.48
2023-05-19T10:52:25.272Z,101609.52
2023-05-19T10:55:17.019Z,101610.28
2023-05-19T10:58:03.150Z,101614.41
2023-05-19T11:01:00.557Z,101616.14
2023-05-19T11:03:51.525Z,101617.92
2023-05-19T11:06:39.765Z,101620.86
2023-05-19T11:09:37.806Z,101623.28
2023-05-19T11:12:25.624Z,101627.35
2023-05-19T11:15:13.341Z,101628.55
2023-05-19T11:18:01.333Z,101628.61
2023-05-19T11:20:57.767Z,101627.46
2023-05-19T11:23:43.532Z,101629.58
2023-05-19T11:26:44.647Z,101628.49
2023-05-19T11:29:32.822Z,101626.89
2023-05-19T11:32:21.329Z,101621.98
2023-05-19T11:35:08.243Z,101623.50
2023-05-19T11:37:56.952Z,101622.48
2023-05-19T11:40:43.501Z,101621.85
2023-05-19T11:43:29.363Z,101621.39
2023-05-19T11:46:19.173Z,101621.44
2023-05-19T11:49:05.247Z,101617.61
2023-05-19T11:51:51.004Z,101616.98
2023-05-19T11:54:38.767Z,101617.26
2023-05-19T11:57:24.468Z,101619.14
2023-05-19T12:00:11.964Z,101613.45
2023-05-19T12:02:57.523Z,101611.54
2023-05-19T12:05:45.820Z,101607.23
2023-05-19T12:08:35.846Z,101604.65
2023-05-19T12:11:22.888Z,101605.23
2023-05-19T12:14:09.147Z,101603.95
2023-05-19T12:16:55.125Z,101603.21
2023-05-19T12:20:26.442Z,101603.52
2023-05-19T12:23:41.001Z,101605.67
2023-05-19T12:26:52.054Z,101605.05
2023-05-19T12:29:52.297Z,101598.48
2023-05-19T12:32:38.564Z,101601.89
2023-05-19T12:35:34.171Z,101600.36
2023-05-19T12:38:20.795Z,101596.95
2023-05-19T12:41:07.038Z,101596.96
2023-05-19T12:43:54.896Z,101593.92
2023-05-19T12:46:40.457Z,101591.02
2023-05-19T12:49:26.238Z,101587.39
2023-05-19T12:52:13.323Z,101586.40
2023-05-19T12:55:07.256Z,101587.91
2023-05-19T12:57:56.460Z,101586.60
2023-05-19T13:00:44.643Z,101583.60
2023-05-19T13:03:30.357Z,101578.33
2023-05-19T13:06:15.822Z,101575.98
2023-05-19T13:09:01.076Z,101576.02
2023-05-19T13:11:54.213Z,101577.81
2023-05-19T13:14:42.180Z,101575.79
2023-05-19T13:17:28.093Z,101574.31
2023-05-19T13:20:13.892Z,101572.27
2023-05-19T13:22:59.929Z,101570.55
2023-05-19T13:25:50.952Z,101569.73
2023-05-19T13:28:36.752Z,101566.02
2023-05-19T13:31:22.764Z,101564.08
2023-05-19T13:34:08.885Z,101568.03
2023-05-19T13:36:55.031Z,101566.52
2023-05-19T13:39:40.945Z,101567.42
2023-05-19T13:42:27.501Z,101565.47
2023-05-19T13:45:14.657Z,101564.87
2023-05-19T13:48:02.095Z,101571.21
2023-05-19T13:50:47.714Z,101572.02
2023-05-19T13:53:34.103Z,101570.90
2023-05-19T13:56:19.868Z,101568.27
2023-05-19T13:59:05.122Z,101570.07
2023-05-19T14:01:50.684Z,101572.98
2023-05-19T14:04:38.296Z,101572.21
2023-05-19T14:07:31.466Z,101572.04
2023-05-19T14:14:14.813Z,101576.17
2023-05-19T14:21:08.020Z,101570.83
2023-05-19T14:23:53.417Z,101570.52
2023-05-19T14:26:38.899Z,101566.80
2023-05-19T14:29:24.731Z,101567.44
2023-05-19T14:32:10.648Z,101567.44
2023-05-19T14:34:57.959Z,101568.63
2023-05-19T14:37:43.571Z,101567.73
2023-05-19T14:40:29.111Z,101568.27
2023-05-19T14:43:20.167Z,101569.86
2023-05-19T14:46:05.745Z,101568.92
2023-05-19T14:48:51.491Z,101574.24
2023-05-19T14:51:39.269Z,101577.83
2023-05-19T14:54:24.955Z,101583.54
2023-05-19T14:57:10.702Z,101586.02
2023-05-19T14:59:56.494Z,101587.70
2023-05-19T15:02:41.924Z,101585.02
2023-05-19T15:05:27.769Z,101586.43
2023-05-19T15:08:13.574Z,101585.44
2023-05-19T15:10:59.431Z,101586.16
2023-05-19T15:13:46.340Z,101588.73
2023-05-19T15:16:32.684Z,101586.77
2023-05-19T15:19:21.117Z,101586.75
2023-05-19T15:22:08.099Z,101587.25
2023-05-19T15:24:56.167Z,101589.84
2023-05-19T15:27:44.929Z,101591.08
2023-05-19T15:30:31.976Z,101603.02
2023-05-19T15:33:17.623Z,101601.14
2023-05-19T15:36:05.027Z,101598.61
2023-05-19T15:38:50.812Z,101601.27
2023-05-19T15:41:36.435Z,101601.94
2023-05-19T15:44:21.905Z,101605.58
2023-05-19T15:47:07.118Z,101606.03
2023-05-19T15:49:52.655Z,101613.70
2023-05-19T15:52:37.964Z,101624.11
2023-05-19T15:55:23.776Z,101622.25
2023-05-19T15:58:09.696Z,101612.93
2023-05-19T16:00:55.838Z,101608.25
2023-05-19T16:03:42.952Z,101608.50
2023-05-19T16:06:28.986Z,101609.85
2023-05-19T16:09:14.518Z,101613.55
2023-05-19T16:12:02.335Z,101613.30
2023-05-19T16:14:47.601Z,101611.02
2023-05-19T16:17:44.390Z,101612.62
2023-05-19T16:21:06.741Z,101614.27
2023-05-19T16:31:34.096Z,101629.58
2023-05-19T16:34:59.394Z,101631.92
2023-05-19T16:38:25.656Z,101633.80
2023-05-19T16:41:50.173Z,101635.23
2023-05-19T16:48:35.606Z,101649.15
2023-05-19T16:51:33.420Z,101655.51
2023-05-19T16:54:54.374Z,101653.91
2023-05-19T16:58:10.990Z,101648.45
2023-05-19T17:04:45.980Z,101669.98
2023-05-19T17:08:14.711Z,101675.95
2023-05-19T17:11:23.236Z,101676.48
2023-05-19T17:14:15.976Z,101675.92
2023-05-19T17:17:01.637Z,101682.90
2023-05-19T17:19:47.902Z,101688.39
2023-05-19T17:22:33.986Z,101688.13
2023-05-19T17:25:19.911Z,101691.36
2023-05-19T17:28:13.171Z,101688.79
2023-05-19T17:31:49.416Z,101694.30
2023-05-19T17:41:19.456Z,101704.09
2023-05-19T17:44:06.370Z,101709.34
2023-05-19T17:46:52.217Z,101713.35
2023-05-19T17:50:01.781Z,101712.27
2023-05-19T17:52:48.345Z,101707.95
2023-05-19T17:55:35.131Z,101711.14
2023-05-19T18:01:25.324Z,101701.23
2023-05-19T18:11:35.978Z,101702.92
2023-05-19T18:18:11.217Z,101699.57
2023-05-19T18:21:13.646Z,101697.44
2023-05-19T18:24:26.282Z,101701.77
2023-05-19T18:27:35.672Z,101703.77
2023-05-19T18:42:00.240Z,101700.98
2023-05-19T18:44:55.409Z,101696.67
2023-05-19T18:47:57.410Z,101698.90
2023-05-19T18:54:28.367Z,101690.88
2023-05-19T18:57:14.608Z,101690.61
2023-05-19T19:00:03.679Z,101690.81
2023-05-19T19:02:49.007Z,101688.50
2023-05-19T19:05:34.852Z,101693.45
2023-05-19T19:08:20.870Z,101695.71
2023-05-19T19:11:10.058Z,101698.80
2023-05-19T19:20:31.856Z,101701.73
2023-05-19T19:23:20.139Z,101700.36
2023-05-19T19:26:08.769Z,101693.85
2023-05-19T19:28:55.765Z,101692.69
2023-05-19T19:31:41.738Z,101696.23
2023-05-19T19:35:01.112Z,101694.80
2023-05-19T19:41:31.777Z,101698.38
2023-05-19T19:48:41.341Z,101695.12
2023-05-19T19:55:31.492Z,101689.19
2023-05-19T20:01:45.570Z,101691.51
2023-05-19T20:04:31.896Z,101702.14
2023-05-19T20:07:20.195Z,101698.21
2023-05-19T20:10:07.683Z,101697.56
2023-05-19T20:12:53.174Z,101697.64
2023-05-19T20:15:38.499Z,101701.38
2023-05-19T20:18:25.200Z,101700.87
2023-05-19T20:21:10.994Z,101698.59
2023-05-19T20:23:56.420Z,101700.11
2023-05-19T20:26:41.810Z,101696.55
2023-05-19T20:29:27.862Z,101701.75
2023-05-19T20:36:07.164Z,101702.38
2023-05-19T20:43:06.136Z,101712.94
2023-05-19T20:45:51.792Z,101713.00
2023-05-19T20:48:37.692Z,101712.50
2023-05-19T20:54:48.014Z,101701.81
2023-05-19T21:01:08.417Z,101704.27
2023-05-19T21:07:56.628Z,101703.48
2023-05-19T21:11:01.809Z,101689.00
2023-05-19T21:14:09.388Z,101682.62
2023-05-19T21:20:32.304Z,101677.50
2023-05-19T21:23:26.481Z,101679.27
2023-05-19T21:26:12.074Z,101675.00
2023-05-19T21:32:40.735Z,101679.90
2023-05-19T21:35:54.026Z,101680.19
2023-05-19T21:38:55.402Z,101682.23
2023-05-19T21:41:41.774Z,101683.11
2023-05-19T21:44:28.029Z,101680.02
2023-05-19T21:51:43.041Z,101680.33
2023-05-19T21:54:28.889Z,101680.38
2023-05-19T21:57:14.374Z,101686.17
2023-05-19T22:00:00.007Z,101681.58
2023-05-19T22:03:00.872Z,101686.14
2023-05-19T22:05:51.279Z,101688.89
2023-05-19T22:08:36.910Z,101686.77
2023-05-19T22:11:23.169Z,101693.86
2023-05-19T22:14:11.463Z,101700.13
2023-05-19T22:16:59.855Z,101729.36
2023-05-19T22:19:47.036Z,101737.22
2023-05-19T22:33:51.397Z,101747.13
2023-05-19T22:39:53.319Z,101739.02
2023-05-19T22:43:02.778Z,101748.62
2023-05-19T22:45:48.123Z,101749.39
2023-05-19T22:48:45.431Z,101749.54
2023-05-19T22:51:31.454Z,101749.89
2023-05-19T22:54:20.340Z,101746.85
2023-05-19T22:57:05.870Z,101743.85
2023-05-19T22:59:51.597Z,101747.45
2023-05-19T23:06:31.049Z,101740.06
2023-05-19T23:12:22.269Z,101736.59
2023-05-19T23:15:17.158Z,101733.35
2023-05-19T23:18:06.572Z,101736.02
2023-05-19T23:24:07.046Z,101733.08
2023-05-19T23:30:30.922Z,101730.69
2023-05-19T23:33:16.541Z,101721.44
2023-05-19T23:36:07.184Z,101722.84
2023-05-19T23:38:52.876Z,101736.42
2023-05-19T23:41:38.316Z,101743.14
2023-05-19T23:44:23.748Z,101742.19
2023-05-19T23:47:09.412Z,101735.80
2023-05-19T23:49:55.073Z,101736.45
2023-05-19T23:52:40.330Z,101735.56
2023-05-19T23:55:25.565Z,101730.52
2023-05-19T23:58:11.060Z,101724.80
